Terminal Aerodrome Forecast
Issued by NWS Quad Cities IA IL

Home | Current Version | Previous Version | Text Only | Print | Product List | Glossary On
Versions: 1 2 3 4 5 6 7 8 9 10 11 12 13 14 15 16 17 18 19
000
FTUS43 KDVN 251700
TAFDBQ
TAF
KDBQ 251725Z 2518/2618 20017G26KT P6SM BKN009 BKN012
      TEMPO 2518/2519 P6SM SCT009 BKN012
     FM251900 19015G24KT P6SM BKN012
     FM252100 18014G23KT P6SM SCT012
     FM260200 14006KT P6SM SCT030
     FM260900 17005KT 4SM BR BKN060
     FM261100 20005KT 4SM BR BKN060
     FM261500 31005KT P6SM BKN060=

USA.gov is the U.S. government's official web portal to all federal, state and local government web resources and services.